MD37 weather

Citizens Bank Headquarters Heliport
Laurel, Maryland, United States

Public forecast

Using degrees Fahrenheit for public forecast. Weather courtesy of forecast.io.

Closest aviation weather report (METAR) to Citizens Bank Headquarters Heliport

Closest report is Tipton Airport, 6.4 nm (11.9 km) E. Retrieved 2019/11/19 01:33 UTC (8 minutes ago):

KFME 190133Z AUTO 00000KT 10SM BKN065 OVC100 05/03 A2977 RMK AO1

Closest aviation forecast (TAF) to Citizens Bank Headquarters Heliport

Closest forecast is Baltimore/Washington International Thurgood Marshall Airport, 11.9 nm (22.1 km) ENE. Retrieved 2019-11-19 00:48 UTC (53 minutes ago):

TAF KBWI 182344Z 1900/2006 28005KT P6SM BKN100 FM190500 VRB03KT 6SM BR OVC030 FM190900 VRB03KT 6SM BR OVC005 FM191300 VRB03KT P6SM BKN030 FM191400 VRB03KT P6SM SCT110